Keewaydin — ZCFL7 — position and weather

sailwx.info

Track history (hours):
 
Tides and Currents Weather Stations Pressure Air Temp Water Temp Dewpoint Dewpoint Depression Visibility Wind Speed Wind Dir Waves Ship Positions

Keewaydin

Last reported at 2017-May-05 18:16 UTC. Time now 2017-May-23 17:04 UTC.
Position N 41°16' E 002°14'.
Warning: this ship's position is 17 days out of date.

Length 34 m; draft 2.7 m.

MMSI: 319536000.

Date/timePositionNaut miles runAvg speedWind from/ knotsBaromVisibWave heightAir tempDewpointWater temp
2017-May-05 18:16N 41°16' E 002°14'2 5.7
2017-May-05 17:58N 41°14' E 002°15'3 5.8
2017-May-05 17:26N 41°11' E 002°15'3 6.6
2017-May-05 17:00N 41°08' E 002°16'3 6.8
2017-May-05 16:30N 41°05' E 002°17'3 6.6
2017-May-05 16:00N 41°02' E 002°18'3 6.5
2017-May-05 15:30N 40°59' E 002°19'3 7.0
2017-May-05 15:00N 40°55' E 002°20'7 6.6
2017-May-05 14:00N 40°49' E 002°23'3 6.6
2017-May-05 13:30N 40°46' E 002°24'3 7.0
2017-May-05 13:00N 40°42' E 002°25'4 7.2
2017-May-05 12:30N 40°39' E 002°26'3 6.5
2017-May-05 12:00N 40°36' E 002°27'3 6.4
2017-May-05 11:31N 40°33' E 002°28'4 7.4
2017-May-05 11:00N 40°29' E 002°29'10 6.8
2017-May-05 09:31N 40°19' E 002°32'0 7.2
2017-May-05 09:30N 40°19' E 002°32'3 6.5
2017-May-05 09:00N 40°16' E 002°33'3 6.5
2017-May-05 08:30N 40°13' E 002°33'3 6.9
2017-May-05 08:00N 40°09' E 002°34'3 6.9
2017-May-05 07:31N 40°06' E 002°35'3 6.8
2017-May-05 07:00N 40°03' E 002°36'3 6.5
2017-May-05 06:30N 39°60' E 002°38'3 6.8
2017-May-05 06:00N 39°56' E 002°39'5 9.4
2017-May-05 05:30N 39°52' E 002°40'4 8.1
2017-May-05 05:00N 39°48' E 002°41'0 0.1
2017-May-05 04:28N 39°48' E 002°41'0 0.0
2017-May-05 03:58N 39°48' E 002°41'0 0.0
2017-May-05 03:25N 39°48' E 002°41'0 0.0
2017-May-05 02:55N 39°48' E 002°41'0 0.0
2017-May-05 02:28N 39°48' E 002°41'0 0.0
2017-May-05 01:55N 39°48' E 002°41'0 0.0
2017-May-05 01:25N 39°48' E 002°41'0 0.0
2017-May-05 00:58N 39°48' E 002°41'0 0.0
2017-May-05 00:16N 39°48' E 002°41'0 0.0
2017-May-04 23:58N 39°48' E 002°41'0 0.0
2017-May-04 23:25N 39°48' E 002°41'0 0.0
2017-May-04 22:55N 39°48' E 002°41'0 0.0
2017-May-04 22:25N 39°48' E 002°41'0 0.0
2017-May-04 21:55N 39°48' E 002°41'0 0.0
2017-May-04 21:25N 39°48' E 002°41'0 0.0
2017-May-04 20:55N 39°48' E 002°41'0 0.0
2017-May-04 20:25N 39°48' E 002°41'0 0.0
2017-May-04 19:58N 39°48' E 002°41'0 0.0
2017-May-04 19:25N 39°48' E 002°41'0 0.0
2017-May-04 18:58N 39°48' E 002°41'0 0.0
2017-May-04 18:25N 39°48' E 002°41'0 0.0
2017-May-04 17:55N 39°48' E 002°41'0 0.0
2017-May-04 17:25N 39°48' E 002°41'0 0.0
2017-May-04 16:58N 39°48' E 002°41'0 0.0
2017-May-04 16:28N 39°48' E 002°41'0 0.0
2017-May-04 15:58N 39°48' E 002°41'0 0.0
2017-May-04 15:25N 39°48' E 002°41'0 0.0
2017-May-04 14:58N 39°48' E 002°41'0 0.0
2017-May-04 13:58N 39°48' E 002°41'0 0.0
2017-May-04 13:28N 39°48' E 002°41'0 0.0
2017-May-04 12:58N 39°48' E 002°41'0 0.0
2017-May-04 12:22N 39°48' E 002°41'0 0.0
2017-May-04 11:58N 39°48' E 002°41'0 0.0
2017-May-04 11:28N 39°48' E 002°41'0 0.0
2017-May-04 10:52N 39°48' E 002°41'0 0.0
2017-May-04 10:28N 39°48' E 002°41'0 0.0
2017-May-04 09:58N 39°48' E 002°41'0 0.0
2017-May-04 09:25N 39°48' E 002°41'0 0.0
2017-May-04 08:55N 39°48' E 002°41'0 0.0
2017-May-04 08:19N 39°48' E 002°41'0 0.0
2017-May-04 07:58N 39°48' E 002°41'0 0.0
2017-May-04 07:25N 39°48' E 002°41'0 0.0
2017-May-04 06:58N 39°48' E 002°41'0 0.0
2017-May-04 06:22N 39°48' E 002°41'0 0.0
2017-May-04 05:58N 39°48' E 002°41'0 0.0
2017-May-04 05:28N 39°48' E 002°41'0 0.0
2017-May-04 04:55N 39°48' E 002°41'0 0.0
2017-May-04 04:28N 39°48' E 002°41'0 0.0
2017-May-04 03:55N 39°48' E 002°41'0 0.0
2017-May-04 03:28N 39°48' E 002°41'0 0.0
2017-May-04 02:58N 39°48' E 002°41'0 0.0
2017-May-04 02:25N 39°48' E 002°41'0 0.0
2017-May-04 01:55N 39°48' E 002°41'0 0.0
2017-May-04 01:28N 39°48' E 002°41'0 0.0
2017-May-04 00:55N 39°48' E 002°41'0 0.0
2017-May-04 00:25N 39°48' E 002°41'0 0.0
2017-May-03 23:58N 39°48' E 002°41'0 0.0
2017-May-03 23:28N 39°48' E 002°41'0 0.0
2017-May-03 22:49N 39°48' E 002°41'0 0.0
2017-May-03 22:28N 39°48' E 002°41'0 0.0
2017-May-03 21:58N 39°48' E 002°41'0 0.0
2017-May-03 21:28N 39°48' E 002°41'0 0.0
2017-May-03 20:55N 39°48' E 002°41'0 0.0
2017-May-03 20:25N 39°48' E 002°41'0 0.0
2017-May-03 19:43N 39°48' E 002°41'0 0.0
2017-May-03 19:25N 39°48' E 002°41'0 0.0
2017-May-03 18:55N 39°48' E 002°41'0 0.0
2017-May-03 18:13N 39°48' E 002°41'0 0.0
2017-May-03 17:55N 39°48' E 002°41'0 0.0
2017-May-03 17:28N 39°48' E 002°41'0 0.0
2017-May-03 16:58N 39°48' E 002°41'0 0.0
2017-May-03 16:28N 39°48' E 002°41'0 0.0
2017-May-03 15:58N 39°48' E 002°41'0 0.0
2017-May-03 15:22N 39°48' E 002°41'0 0.0
2017-May-03 14:58N 39°48' E 002°41'5 4.9
2017-May-03 14:00N 39°45' E 002°36'5 8.9
2017-May-03 13:29N 39°43' E 002°31'14 7.7
2017-May-03 11:44N 39°31' E 002°23'2 9.6
2017-May-03 11:30N 39°29' E 002°25'4 9.1
2017-May-03 11:00N 39°27' E 002°30'4 8.7
2017-May-03 10:30N 39°30' E 002°35'4 8.7
2017-May-03 10:00N 39°33' E 002°38'1 1.7
2017-May-03 09:30N 39°34' E 002°39'  
Track history (hours):
 
Tides and Currents Weather Stations Pressure Air Temp Water Temp Dewpoint Dewpoint Depression Visibility Wind Speed Wind Dir Waves Ship Positions

Keewaydin

Last reported at 2017-May-05 18:16 UTC. Time now 2017-May-23 17:04 UTC.
Position N 41°16' E 002°14'.
Warning: this ship's position is 17 days out of date.

Length 34 m; draft 2.7 m.

MMSI: 319536000.

Date/timePositionNaut miles runAvg speedWind from/ knotsBaromVisibWave heightAir tempDewpointWater temp
2017-May-05 18:16N 41°16' E 002°14'2 5.7
2017-May-05 17:58N 41°14' E 002°15'3 5.8
2017-May-05 17:26N 41°11' E 002°15'3 6.6
2017-May-05 17:00N 41°08' E 002°16'3 6.8
2017-May-05 16:30N 41°05' E 002°17'3 6.6
2017-May-05 16:00N 41°02' E 002°18'3 6.5
2017-May-05 15:30N 40°59' E 002°19'3 7.0
2017-May-05 15:00N 40°55' E 002°20'7 6.6
2017-May-05 14:00N 40°49' E 002°23'3 6.6
2017-May-05 13:30N 40°46' E 002°24'3 7.0
2017-May-05 13:00N 40°42' E 002°25'4 7.2
2017-May-05 12:30N 40°39' E 002°26'3 6.5
2017-May-05 12:00N 40°36' E 002°27'3 6.4
2017-May-05 11:31N 40°33' E 002°28'4 7.4
2017-May-05 11:00N 40°29' E 002°29'10 6.8
2017-May-05 09:31N 40°19' E 002°32'0 7.2
2017-May-05 09:30N 40°19' E 002°32'3 6.5
2017-May-05 09:00N 40°16' E 002°33'3 6.5
2017-May-05 08:30N 40°13' E 002°33'3 6.9
2017-May-05 08:00N 40°09' E 002°34'3 6.9
2017-May-05 07:31N 40°06' E 002°35'3 6.8
2017-May-05 07:00N 40°03' E 002°36'3 6.5
2017-May-05 06:30N 39°60' E 002°38'3 6.8
2017-May-05 06:00N 39°56' E 002°39'5 9.4
2017-May-05 05:30N 39°52' E 002°40'4 8.1
2017-May-05 05:00N 39°48' E 002°41'0 0.1
2017-May-05 04:28N 39°48' E 002°41'0 0.0
2017-May-05 03:58N 39°48' E 002°41'0 0.0
2017-May-05 03:25N 39°48' E 002°41'0 0.0
2017-May-05 02:55N 39°48' E 002°41'0 0.0
2017-May-05 02:28N 39°48' E 002°41'0 0.0
2017-May-05 01:55N 39°48' E 002°41'0 0.0
2017-May-05 01:25N 39°48' E 002°41'0 0.0
2017-May-05 00:58N 39°48' E 002°41'0 0.0
2017-May-05 00:16N 39°48' E 002°41'0 0.0
2017-May-04 23:58N 39°48' E 002°41'0 0.0
2017-May-04 23:25N 39°48' E 002°41'0 0.0
2017-May-04 22:55N 39°48' E 002°41'0 0.0
2017-May-04 22:25N 39°48' E 002°41'0 0.0
2017-May-04 21:55N 39°48' E 002°41'0 0.0
2017-May-04 21:25N 39°48' E 002°41'0 0.0
2017-May-04 20:55N 39°48' E 002°41'0 0.0
2017-May-04 20:25N 39°48' E 002°41'0 0.0
2017-May-04 19:58N 39°48' E 002°41'0 0.0
2017-May-04 19:25N 39°48' E 002°41'0 0.0
2017-May-04 18:58N 39°48' E 002°41'0 0.0
2017-May-04 18:25N 39°48' E 002°41'0 0.0
2017-May-04 17:55N 39°48' E 002°41'0 0.0
2017-May-04 17:25N 39°48' E 002°41'0 0.0
2017-May-04 16:58N 39°48' E 002°41'0 0.0
2017-May-04 16:28N 39°48' E 002°41'0 0.0
2017-May-04 15:58N 39°48' E 002°41'0 0.0
2017-May-04 15:25N 39°48' E 002°41'0 0.0
2017-May-04 14:58N 39°48' E 002°41'0 0.0
2017-May-04 13:58N 39°48' E 002°41'0 0.0
2017-May-04 13:28N 39°48' E 002°41'0 0.0
2017-May-04 12:58N 39°48' E 002°41'0 0.0
2017-May-04 12:22N 39°48' E 002°41'0 0.0
2017-May-04 11:58N 39°48' E 002°41'0 0.0
2017-May-04 11:28N 39°48' E 002°41'0 0.0
2017-May-04 10:52N 39°48' E 002°41'0 0.0
2017-May-04 10:28N 39°48' E 002°41'0 0.0
2017-May-04 09:58N 39°48' E 002°41'0 0.0
2017-May-04 09:25N 39°48' E 002°41'0 0.0
2017-May-04 08:55N 39°48' E 002°41'0 0.0
2017-May-04 08:19N 39°48' E 002°41'0 0.0
2017-May-04 07:58N 39°48' E 002°41'0 0.0
2017-May-04 07:25N 39°48' E 002°41'0 0.0
2017-May-04 06:58N 39°48' E 002°41'0 0.0
2017-May-04 06:22N 39°48' E 002°41'0 0.0
2017-May-04 05:58N 39°48' E 002°41'0 0.0
2017-May-04 05:28N 39°48' E 002°41'0 0.0
2017-May-04 04:55N 39°48' E 002°41'0 0.0
2017-May-04 04:28N 39°48' E 002°41'0 0.0
2017-May-04 03:55N 39°48' E 002°41'0 0.0
2017-May-04 03:28N 39°48' E 002°41'0 0.0
2017-May-04 02:58N 39°48' E 002°41'0 0.0
2017-May-04 02:25N 39°48' E 002°41'0 0.0
2017-May-04 01:55N 39°48' E 002°41'0 0.0
2017-May-04 01:28N 39°48' E 002°41'0 0.0
2017-May-04 00:55N 39°48' E 002°41'0 0.0
2017-May-04 00:25N 39°48' E 002°41'0 0.0
2017-May-03 23:58N 39°48' E 002°41'0 0.0
2017-May-03 23:28N 39°48' E 002°41'0 0.0
2017-May-03 22:49N 39°48' E 002°41'0 0.0
2017-May-03 22:28N 39°48' E 002°41'0 0.0
2017-May-03 21:58N 39°48' E 002°41'0 0.0
2017-May-03 21:28N 39°48' E 002°41'0 0.0
2017-May-03 20:55N 39°48' E 002°41'0 0.0
2017-May-03 20:25N 39°48' E 002°41'0 0.0
2017-May-03 19:43N 39°48' E 002°41'0 0.0
2017-May-03 19:25N 39°48' E 002°41'0 0.0
2017-May-03 18:55N 39°48' E 002°41'0 0.0
2017-May-03 18:13N 39°48' E 002°41'0 0.0
2017-May-03 17:55N 39°48' E 002°41'0 0.0
2017-May-03 17:28N 39°48' E 002°41'0 0.0
2017-May-03 16:58N 39°48' E 002°41'0 0.0
2017-May-03 16:28N 39°48' E 002°41'0 0.0
2017-May-03 15:58N 39°48' E 002°41'0 0.0
2017-May-03 15:22N 39°48' E 002°41'0 0.0
2017-May-03 14:58N 39°48' E 002°41'5 4.9
2017-May-03 14:00N 39°45' E 002°36'5 8.9
2017-May-03 13:29N 39°43' E 002°31'14 7.7
2017-May-03 11:44N 39°31' E 002°23'2 9.6
2017-May-03 11:30N 39°29' E 002°25'4 9.1
2017-May-03 11:00N 39°27' E 002°30'4 8.7
2017-May-03 10:30N 39°30' E 002°35'4 8.7
2017-May-03 10:00N 39°33' E 002°38'1 1.7
2017-May-03 09:30N 39°34' E 002°39'  

Dump ship's entire track history